CFB Trenton
CYTR : rendu visible

Aérodrome :











RETROUVEZ-NOUS SUR...

 
LOGIN :

S'inscrire | Disclaimer

   EN    FR    IT 

 









Légende :    VFR   VFR Marginal   IFR   IFR Intensif   IFR Très Intensif
Visi : 
Plafond : 
>= 8 km
>= 3000ft
5 à 8 km
1000 à 3000 ft
1500m à 5 km
500 à 1000 ft
800 à 1500m
200 à 500 ft
< 800m
< 200 ft
Symboles :   Orages  Brouillard  Fortes neiges  Fortes précipitations  Vent > 20 kt






- Altitude de l'aérodrome : 283 ft
- Code IATA : YTR


CYTR - CFB Trenton

DERNIER METAR :
  • 290900Z 10009KT 8SM -RA OVC015 07/05 A2988 RMK SC8 PCPN VRY LGT SLP122

METARs EXPIRÉS :
  • 290800Z 11007KT 8SM -RA OVC010 07/05 A2989 RMK SC8 PCPN VRY LGT SLP125
  • 290700Z 10007KT 8SM OVC010 06/05 A2991 RMK SC8 SLP147

TAF TAF CYTR
Valide du 29 à 06h jusqu'au 30 à 06h UTC


290530Z 2906/3006 08008KT 6SM BR SCT005 OVC012
TEMPO 2906/2909 2SM -RA -DZ BR BKN005 OVC012
FM290900 10012KT 3SM -RA BR OVC010
TEMPO 2909/2917 1SM -SHRA BR OVC003
PROB30 2911/2917 1SM TSRA BR OVC003CB
FM291700 13012G22KT 3SM -SHRA BR BKN010 OVC015
PROB30 2917/2921 VRB15G25KT 1/2SM +TSRA FG BKN010 OVC015CB
FM292100 22012G22KT 6SM -SHRA BR BKN020 OVC040
FM300300 24012KT P6SM -DZ OVC015 RMK NXT FCST BY 291200Z



MET'MAP, la Météo Aéronautique d'un coup d'oeil ! - Copyright ORBIFLY Décembre 2007 - Disclaimer

ORBIFLY MET'MAP TEAM :

Programmation & Développement : Alexandra Zaïnal
Sur une idée originale de : Baudouin d'Aumeries
Assistance à la programmation : Marc-Olivier Méhu
Soutien technique & logistique : Manuel Goepfert

Contact : metmap@orbifly.com




SOURCES & CREDITS :

   NOAA       Earth
Advisory